createdAt,value
2022-12-13T00:01:51.046Z,16.47
2022-12-13T00:04:57.054Z,19.77
2022-12-13T00:08:01.113Z,16.60
2022-12-13T00:11:08.097Z,23.13
2022-12-13T00:14:14.820Z,18.93
2022-12-13T00:17:19.191Z,21.20
2022-12-13T00:20:22.509Z,20.40
2022-12-13T00:23:26.110Z,21.90
2022-12-13T00:26:32.604Z,22.60
2022-12-13T00:29:35.864Z,19.30
2022-12-13T00:32:40.226Z,21.07
2022-12-13T00:35:43.649Z,18.93
2022-12-13T00:38:46.821Z,23.37
2022-12-13T00:41:50.235Z,19.73
2022-12-13T00:44:55.830Z,20.77
2022-12-13T00:48:01.942Z,19.43
2022-12-13T00:51:08.603Z,19.60
2022-12-13T00:54:11.993Z,21.50
2022-12-13T00:57:15.061Z,23.90
2022-12-13T01:00:18.480Z,21.07
2022-12-13T01:03:25.520Z,24.67
2022-12-13T01:06:34.089Z,19.57
2022-12-13T01:09:39.487Z,22.20
2022-12-13T01:12:42.961Z,23.77
2022-12-13T01:15:48.032Z,23.50
2022-12-13T01:18:52.588Z,21.87
2022-12-13T01:21:55.648Z,20.43
2022-12-13T01:24:58.636Z,22.30
2022-12-13T01:28:01.678Z,18.97
2022-12-13T01:31:08.212Z,22.63
2022-12-13T01:34:14.017Z,20.97
2022-12-13T01:37:17.929Z,18.20
2022-12-13T01:40:22.865Z,17.83
2022-12-13T01:43:51.856Z,18.40
2022-12-13T01:46:55.094Z,22.67
2022-12-13T01:50:04.339Z,19.70
2022-12-13T01:53:09.300Z,19.03
2022-12-13T01:56:18.117Z,18.17
2022-12-13T01:59:22.961Z,21.20
2022-12-13T02:02:26.046Z,21.60
2022-12-13T02:05:37.444Z,24.20
2022-12-13T02:08:43.883Z,24.00
2022-12-13T02:11:47.392Z,23.43
2022-12-13T02:14:50.630Z,24.83
2022-12-13T02:18:19.342Z,26.43
2022-12-13T02:21:34.545Z,22.40
2022-12-13T02:25:03.631Z,21.10
2022-12-13T02:28:31.807Z,22.73
2022-12-13T02:31:45.749Z,23.07
2022-12-13T02:34:55.612Z,25.30
2022-12-13T02:38:04.822Z,21.07
2022-12-13T02:41:16.305Z,23.77
2022-12-13T02:44:23.853Z,24.50
2022-12-13T02:47:30.275Z,25.17
2022-12-13T02:50:34.647Z,20.50
2022-12-13T02:53:39.730Z,23.73
2022-12-13T02:56:42.668Z,26.07
2022-12-13T02:59:45.750Z,22.90
2022-12-13T03:03:08.272Z,25.20
2022-12-13T03:06:33.684Z,25.90
2022-12-13T03:09:50.405Z,21.70
2022-12-13T03:13:15.825Z,24.40
2022-12-13T03:16:29.626Z,23.83
2022-12-13T03:19:34.272Z,24.40
2022-12-13T03:22:37.564Z,24.63
2022-12-13T03:25:41.160Z,26.17
2022-12-13T03:28:44.166Z,25.00
2022-12-13T03:31:47.537Z,25.57
2022-12-13T03:35:00.662Z,27.20
2022-12-13T03:38:05.509Z,24.83
2022-12-13T03:41:12.447Z,24.80
2022-12-13T03:44:15.762Z,23.27
2022-12-13T03:47:18.947Z,25.27
2022-12-13T03:50:27.050Z,26.00
2022-12-13T03:53:33.521Z,27.50
2022-12-13T03:56:37.246Z,27.83
2022-12-13T03:59:40.640Z,23.20
2022-12-13T04:02:43.663Z,24.57
2022-12-13T04:05:49.296Z,23.60
2022-12-13T04:08:52.962Z,28.80
2022-12-13T04:12:13.900Z,25.30
2022-12-13T04:15:17.551Z,23.77
2022-12-13T04:18:21.202Z,24.13
2022-12-13T04:21:28.226Z,27.70
2022-12-13T04:24:32.313Z,27.97
2022-12-13T04:27:38.344Z,24.27
2022-12-13T04:30:41.341Z,23.07
2022-12-13T04:33:44.310Z,23.83
2022-12-13T04:36:48.597Z,29.37
2022-12-13T04:39:51.566Z,24.47
2022-12-13T04:43:04.005Z,25.27
2022-12-13T04:46:08.591Z,24.53
2022-12-13T04:49:11.628Z,26.20
2022-12-13T04:52:21.973Z,20.67
2022-12-13T04:55:25.771Z,23.10
2022-12-13T04:58:28.887Z,24.73
2022-12-13T05:01:31.943Z,22.70
2022-12-13T05:04:36.197Z,23.83
2022-12-13T05:07:42.132Z,24.83
2022-12-13T05:10:45.845Z,23.73
2022-12-13T05:13:48.930Z,23.00
2022-12-13T05:16:55.440Z,23.90
2022-12-13T05:19:58.463Z,24.13
2022-12-13T05:23:03.009Z,25.07
2022-12-13T05:26:06.605Z,20.17
2022-12-13T05:29:09.695Z,21.47
2022-12-13T05:32:12.792Z,21.73
2022-12-13T05:35:23.576Z,22.33
2022-12-13T05:38:28.311Z,18.60
2022-12-13T05:41:35.067Z,19.60
2022-12-13T05:44:38.093Z,24.20
2022-12-13T05:47:41.229Z,23.40
2022-12-13T05:50:44.185Z,20.80
2022-12-13T05:53:53.162Z,21.97
2022-12-13T05:56:56.815Z,20.07
2022-12-13T06:00:00.028Z,19.57
2022-12-13T06:03:03.104Z,18.87
2022-12-13T06:06:08.539Z,19.30
2022-12-13T06:09:12.827Z,20.57
2022-12-13T06:12:31.718Z,21.27
2022-12-13T06:15:35.603Z,21.93
2022-12-13T06:18:48.347Z,23.10
2022-12-13T06:21:55.867Z,25.77
2022-12-13T06:25:01.551Z,22.73
2022-12-13T06:28:05.031Z,22.80
2022-12-13T06:31:08.070Z,19.53
2022-12-13T06:34:14.307Z,23.23
2022-12-13T06:37:20.588Z,23.23
2022-12-13T06:40:26.433Z,21.87
2022-12-13T06:43:31.786Z,21.70
2022-12-13T06:46:35.265Z,25.90
2022-12-13T06:49:38.394Z,23.97
2022-12-13T06:52:41.374Z,24.00
2022-12-13T06:55:45.943Z,22.93
2022-12-13T06:58:48.948Z,25.23
2022-12-13T07:01:52.002Z,25.53
2022-12-13T07:04:56.424Z,25.50
2022-12-13T07:07:59.525Z,26.10
2022-12-13T07:11:05.321Z,23.27
2022-12-13T07:14:08.838Z,25.37
2022-12-13T07:17:11.781Z,24.10
2022-12-13T07:20:15.842Z,28.90
2022-12-13T07:23:18.851Z,25.50
2022-12-13T07:30:53.275Z,24.80
2022-12-13T07:33:56.359Z,30.03
2022-12-13T07:36:59.411Z,27.13
2022-12-13T07:40:04.753Z,28.50
2022-12-13T07:43:11.851Z,26.57
2022-12-13T07:46:15.432Z,31.80
2022-12-13T07:49:18.408Z,27.27
2022-12-13T07:52:21.333Z,24.47
2022-12-13T07:55:33.559Z,31.93
2022-12-13T07:58:42.057Z,27.07
2022-12-13T08:01:45.011Z,28.83
2022-12-13T08:04:54.653Z,29.17
2022-12-13T08:07:58.102Z,31.57
2022-12-13T08:11:06.283Z,29.67
2022-12-13T08:14:17.003Z,31.67
2022-12-13T08:17:20.493Z,26.17
2022-12-13T08:20:23.563Z,30.77
2022-12-13T08:23:26.690Z,33.73
2022-12-13T08:26:29.711Z,28.73
2022-12-13T08:29:36.739Z,31.37
2022-12-13T08:32:39.714Z,29.93
2022-12-13T08:35:58.826Z,30.70
2022-12-13T08:39:03.022Z,29.73
2022-12-13T08:42:14.726Z,32.17
2022-12-13T08:45:23.860Z,31.40
2022-12-13T08:48:26.833Z,33.13
2022-12-13T08:51:35.602Z,28.97
2022-12-13T08:54:38.780Z,31.33
2022-12-13T08:57:42.897Z,31.30
2022-12-13T09:00:48.272Z,35.20
2022-12-13T09:03:51.232Z,28.73
2022-12-13T09:06:55.188Z,33.53
2022-12-13T09:09:58.278Z,30.83
2022-12-13T09:13:11.659Z,30.33
2022-12-13T09:16:24.417Z,28.10
2022-12-13T09:19:27.815Z,31.60
2022-12-13T09:22:33.756Z,32.33
2022-12-13T09:25:37.830Z,33.60
2022-12-13T09:28:42.172Z,29.23
2022-12-13T09:31:52.923Z,32.83
2022-12-13T09:34:56.366Z,32.53
2022-12-13T09:37:59.340Z,26.33
2022-12-13T09:41:19.577Z,27.90
2022-12-13T09:44:30.828Z,32.00
2022-12-13T09:47:47.136Z,32.67
2022-12-13T09:50:58.538Z,29.70
2022-12-13T09:54:20.519Z,27.17
2022-12-13T09:57:30.977Z,27.50
2022-12-13T10:00:37.300Z,24.90
2022-12-13T10:03:46.528Z,30.47
2022-12-13T10:06:53.165Z,27.97
2022-12-13T10:10:01.545Z,31.77
2022-12-13T10:13:14.225Z,26.47
2022-12-13T10:16:27.120Z,30.57
2022-12-13T10:19:44.551Z,24.53
2022-12-13T10:23:08.019Z,28.47
2022-12-13T10:26:23.905Z,26.00
2022-12-13T10:29:28.038Z,25.87
2022-12-13T10:32:37.724Z,33.23
2022-12-13T10:35:42.425Z,27.37
2022-12-13T10:38:47.214Z,30.73
2022-12-13T10:41:55.881Z,26.57
2022-12-13T10:45:23.531Z,21.90
2022-12-13T10:48:38.919Z,26.17
2022-12-13T10:51:43.582Z,25.43
2022-12-13T10:54:49.539Z,25.30
2022-12-13T10:57:55.399Z,26.90
2022-12-13T11:01:12.412Z,25.63
2022-12-13T11:04:27.841Z,25.73
2022-12-13T11:07:34.574Z,25.80
2022-12-13T11:10:38.869Z,27.80
2022-12-13T11:13:47.580Z,28.00
2022-12-13T11:17:18.141Z,27.43
2022-12-13T11:20:25.163Z,25.20
2022-12-13T11:23:34.540Z,24.97
2022-12-13T11:26:43.050Z,24.40
2022-12-13T11:30:09.718Z,24.13
2022-12-13T11:33:25.394Z,21.77
2022-12-13T11:36:39.651Z,27.90
2022-12-13T11:39:51.248Z,24.07
2022-12-13T11:43:00.474Z,25.27
2022-12-13T11:46:12.220Z,22.87
2022-12-13T11:49:19.073Z,24.10
2022-12-13T11:52:28.415Z,25.30
2022-12-13T11:55:40.228Z,24.20
2022-12-13T11:59:08.522Z,22.53
2022-12-13T12:02:21.475Z,26.80
2022-12-13T12:05:31.776Z,29.53
2022-12-13T12:08:39.786Z,33.67
2022-12-13T12:11:55.284Z,25.20
2022-12-13T12:15:05.019Z,26.87
2022-12-13T12:18:20.907Z,22.80
2022-12-13T12:22:04.842Z,24.87
2022-12-13T12:25:24.736Z,21.97
2022-12-13T12:28:44.182Z,28.67
2022-12-13T12:31:56.657Z,24.40
2022-12-13T12:35:19.450Z,22.57
2022-12-13T12:38:53.883Z,27.97
2022-12-13T12:42:24.910Z,28.43
2022-12-13T12:45:56.972Z,22.93
2022-12-13T12:49:45.646Z,22.10
2022-12-13T12:53:01.221Z,28.20
2022-12-13T12:56:26.548Z,23.47
2022-12-13T12:59:40.417Z,19.83
2022-12-13T13:02:56.035Z,19.80
2022-12-13T13:06:10.842Z,21.70
2022-12-13T13:09:24.469Z,23.07
2022-12-13T13:12:30.796Z,20.50
2022-12-13T13:15:56.811Z,22.87
2022-12-13T13:19:02.194Z,23.63
2022-12-13T13:22:06.450Z,20.40
2022-12-13T13:25:32.851Z,20.07
2022-12-13T13:28:35.810Z,19.47
2022-12-13T13:32:01.220Z,23.30
2022-12-13T13:35:54.252Z,17.33
2022-12-13T13:39:01.136Z,21.70
2022-12-13T13:42:19.312Z,23.43
2022-12-13T13:45:24.152Z,21.37
2022-12-13T13:48:53.683Z,19.70
2022-12-13T13:52:26.626Z,21.97
2022-12-13T13:55:49.632Z,21.50
2022-12-13T13:59:47.008Z,18.80
2022-12-13T14:03:40.892Z,20.70
2022-12-13T14:07:40.559Z,18.90
2022-12-13T14:10:58.657Z,19.53
2022-12-13T14:14:42.878Z,21.00
2022-12-13T14:18:39.394Z,24.50
2022-12-13T14:21:57.628Z,23.07
2022-12-13T14:25:26.949Z,30.77
2022-12-13T14:28:43.805Z,23.73
2022-12-13T14:31:49.602Z,25.27
2022-12-13T14:34:54.105Z,23.83
2022-12-13T14:37:59.629Z,25.63
2022-12-13T14:41:05.953Z,31.73
2022-12-13T14:44:15.875Z,27.53
2022-12-13T14:47:20.008Z,26.17
2022-12-13T14:50:26.126Z,30.03
2022-12-13T14:53:34.390Z,29.13
2022-12-13T14:56:56.467Z,25.87
2022-12-13T15:00:21.701Z,24.33
2022-12-13T15:03:28.426Z,27.73
2022-12-13T15:06:31.983Z,32.13
2022-12-13T15:09:40.891Z,29.13
2022-12-13T15:12:46.484Z,25.90
2022-12-13T15:15:55.621Z,27.40
2022-12-13T15:19:10.992Z,26.30
2022-12-13T15:22:17.137Z,27.93
2022-12-13T15:25:24.942Z,25.33
2022-12-13T15:28:39.604Z,25.33
2022-12-13T15:31:42.685Z,27.37
2022-12-13T15:34:52.839Z,26.63
2022-12-13T15:37:56.339Z,26.20
2022-12-13T15:41:02.680Z,29.40
2022-12-13T15:44:18.122Z,27.90
2022-12-13T15:47:28.459Z,27.20
2022-12-13T15:50:36.062Z,30.53
2022-12-13T15:53:39.916Z,26.43
2022-12-13T15:57:01.735Z,26.80
2022-12-13T16:00:29.691Z,31.83
2022-12-13T16:03:42.739Z,29.37
2022-12-13T16:06:52.654Z,26.57
2022-12-13T16:09:56.758Z,31.57
2022-12-13T16:13:08.085Z,28.03
2022-12-13T16:16:28.494Z,27.83
2022-12-13T16:19:32.192Z,27.67
2022-12-13T16:22:35.166Z,33.30
2022-12-13T16:25:38.216Z,32.43
2022-12-13T16:28:41.430Z,32.63
2022-12-13T16:31:46.161Z,28.93
2022-12-13T16:34:49.303Z,32.43
2022-12-13T16:37:53.680Z,30.70
2022-12-13T16:41:08.373Z,30.93
2022-12-13T16:44:22.846Z,34.13
2022-12-13T16:47:40.360Z,32.30
2022-12-13T16:50:57.838Z,37.83
2022-12-13T16:54:01.255Z,34.40
2022-12-13T16:57:04.407Z,37.27
2022-12-13T17:00:11.531Z,32.33
2022-12-13T17:03:16.390Z,36.23
2022-12-13T17:06:24.734Z,32.50
2022-12-13T17:09:27.723Z,36.30
2022-12-13T17:12:31.468Z,39.60
2022-12-13T17:15:34.603Z,41.60
2022-12-13T17:18:41.841Z,42.27
2022-12-13T17:21:44.853Z,40.63
2022-12-13T17:24:47.966Z,36.57
2022-12-13T17:27:51.084Z,34.70
2022-12-13T17:30:55.443Z,39.70
2022-12-13T17:33:59.961Z,39.17
2022-12-13T17:37:07.093Z,36.30
2022-12-13T17:40:13.300Z,42.00
2022-12-13T17:43:26.278Z,41.13
2022-12-13T17:46:36.204Z,41.50
2022-12-13T17:49:40.543Z,45.90
2022-12-13T17:52:43.559Z,40.47
2022-12-13T17:55:55.277Z,41.30
2022-12-13T17:58:58.235Z,34.80
2022-12-13T18:02:01.232Z,45.90
2022-12-13T18:05:07.082Z,46.00
2022-12-13T18:08:10.195Z,45.70
2022-12-13T18:14:37.979Z,47.63
2022-12-13T18:18:10.020Z,44.67
2022-12-13T18:21:07.146Z,38.93
2022-12-13T18:24:11.199Z,38.53
2022-12-13T18:27:14.202Z,36.07
2022-12-13T18:30:17.255Z,37.10
2022-12-13T18:33:20.387Z,35.90
2022-12-13T18:36:25.985Z,36.33
2022-12-13T18:39:29.103Z,33.93
2022-12-13T18:42:32.151Z,39.80
2022-12-13T18:45:35.501Z,33.27
2022-12-13T18:48:38.837Z,38.40
2022-12-13T18:51:43.632Z,35.13
2022-12-13T18:54:54.190Z,35.93
2022-12-13T18:57:57.742Z,39.00
2022-12-13T19:01:01.708Z,34.93
2022-12-13T19:04:04.754Z,33.63
2022-12-13T19:07:10.068Z,37.80
2022-12-13T19:10:13.058Z,31.07
2022-12-13T19:13:16.301Z,36.10
2022-12-13T19:16:22.454Z,31.53
2022-12-13T19:19:25.589Z,31.83
2022-12-13T19:22:30.414Z,33.23
2022-12-13T19:25:33.420Z,35.57
2022-12-13T19:28:36.762Z,35.77
2022-12-13T19:31:40.386Z,34.43
2022-12-13T19:34:43.527Z,41.53
2022-12-13T19:37:48.035Z,40.20
2022-12-13T19:40:52.592Z,34.57
2022-12-13T19:43:56.001Z,31.47
2022-12-13T19:46:59.845Z,33.10
2022-12-13T19:50:03.054Z,32.67
2022-12-13T19:53:07.819Z,33.07
2022-12-13T19:56:13.522Z,35.97
2022-12-13T19:59:16.657Z,35.63
2022-12-13T20:02:19.964Z,38.53
2022-12-13T20:05:23.052Z,36.50
2022-12-13T20:08:28.049Z,37.23
2022-12-13T20:11:31.391Z,35.17
2022-12-13T20:14:34.385Z,34.80
2022-12-13T20:17:37.561Z,38.20
2022-12-13T20:21:09.825Z,41.07
2022-12-13T20:24:06.474Z,39.77
2022-12-13T20:27:15.399Z,38.27
2022-12-13T20:30:18.673Z,38.00
2022-12-13T20:33:21.667Z,42.73
2022-12-13T20:36:27.518Z,39.33
2022-12-13T20:39:32.178Z,37.60
2022-12-13T20:42:35.583Z,39.53
2022-12-13T20:45:38.717Z,43.07
2022-12-13T20:48:44.623Z,41.07
2022-12-13T20:51:47.696Z,38.50
2022-12-13T20:54:52.031Z,60.47
2022-12-13T20:57:55.069Z,51.40
2022-12-13T21:00:58.413Z,48.73
2022-12-13T21:04:05.296Z,54.43
2022-12-13T21:07:08.543Z,48.90
2022-12-13T21:10:13.076Z,63.77
2022-12-13T21:13:16.050Z,54.37
2022-12-13T21:16:20.056Z,43.97
2022-12-13T21:19:25.340Z,38.63
2022-12-13T21:22:28.290Z,36.70
2022-12-13T21:25:32.577Z,39.53
2022-12-13T21:28:35.635Z,45.70
2022-12-13T21:31:40.455Z,40.43
2022-12-13T21:34:43.477Z,43.17
2022-12-13T21:37:48.443Z,39.83
2022-12-13T21:40:52.801Z,34.90
2022-12-13T21:43:56.959Z,33.47
2022-12-13T21:47:15.342Z,35.10
2022-12-13T21:50:18.516Z,33.73
2022-12-13T21:53:23.129Z,40.20
2022-12-13T21:56:47.766Z,34.17
2022-12-13T21:59:50.855Z,38.27
2022-12-13T22:02:54.208Z,39.10
2022-12-13T22:05:57.890Z,31.80
2022-12-13T22:09:01.078Z,35.17
2022-12-13T22:12:09.153Z,41.77
2022-12-13T22:15:14.661Z,35.47
2022-12-13T22:18:17.580Z,36.27
2022-12-13T22:21:20.641Z,29.80
2022-12-13T22:24:23.601Z,38.90
2022-12-13T22:27:28.242Z,38.50
2022-12-13T22:30:31.197Z,40.33
2022-12-13T22:33:34.203Z,38.63
2022-12-13T22:36:37.355Z,36.00
2022-12-13T22:39:40.713Z,36.63
2022-12-13T22:42:48.302Z,44.07
2022-12-13T22:45:51.699Z,39.67
2022-12-13T22:48:56.125Z,43.70
2022-12-13T22:51:59.091Z,42.13
2022-12-13T22:55:04.931Z,40.73
2022-12-13T22:58:09.280Z,47.00
2022-12-13T23:01:16.496Z,52.20
2022-12-13T23:04:19.588Z,42.40
2022-12-13T23:07:22.665Z,47.53
2022-12-13T23:10:43.620Z,46.27
2022-12-13T23:13:52.612Z,40.43
2022-12-13T23:16:55.790Z,40.63
2022-12-13T23:19:58.864Z,35.83
2022-12-13T23:23:02.056Z,35.83
2022-12-13T23:26:11.082Z,42.07
2022-12-13T23:29:18.601Z,37.47
2022-12-13T23:32:21.610Z,36.33
2022-12-13T23:35:24.661Z,40.17
2022-12-13T23:38:28.252Z,38.33
2022-12-13T23:41:34.078Z,36.27
2022-12-13T23:44:39.489Z,35.13
2022-12-13T23:47:42.522Z,36.23
2022-12-13T23:50:47.196Z,42.77
2022-12-13T23:53:50.569Z,37.30
2022-12-13T23:56:53.759Z,43.40
